sensor_id;sensor_type;location;lat;lon;timestamp;temperature;humidity
64997;SHT31;51545;51.568;6.998;2024-01-10T00:01:59;-4.64;66.90
64997;SHT31;51545;51.568;6.998;2024-01-10T00:04:25;-4.67;67.02
64997;SHT31;51545;51.568;6.998;2024-01-10T00:06:51;-4.73;67.10
64997;SHT31;51545;51.568;6.998;2024-01-10T00:09:17;-4.81;67.75
64997;SHT31;51545;51.568;6.998;2024-01-10T00:11:43;-4.78;67.70
64997;SHT31;51545;51.568;6.998;2024-01-10T00:14:10;-4.70;67.52
64997;SHT31;51545;51.568;6.998;2024-01-10T00:16:38;-4.80;68.13
64997;SHT31;51545;51.568;6.998;2024-01-10T00:19:04;-4.88;68.31
64997;SHT31;51545;51.568;6.998;2024-01-10T00:21:30;-4.92;68.58
64997;SHT31;51545;51.568;6.998;2024-01-10T00:23:56;-4.73;68.00
64997;SHT31;51545;51.568;6.998;2024-01-10T00:26:22;-4.88;68.63
64997;SHT31;51545;51.568;6.998;2024-01-10T00:28:49;-5.02;68.98
64997;SHT31;51545;51.568;6.998;2024-01-10T00:31:14;-5.09;69.97
64997;SHT31;51545;51.568;6.998;2024-01-10T00:33:42;-5.07;69.82
64997;SHT31;51545;51.568;6.998;2024-01-10T00:36:08;-5.12;69.74
64997;SHT31;51545;51.568;6.998;2024-01-10T00:38:34;-5.22;70.24
64997;SHT31;51545;51.568;6.998;2024-01-10T00:41:01;-5.26;70.35
64997;SHT31;51545;51.568;6.998;2024-01-10T00:43:28;-5.29;70.85
64997;SHT31;51545;51.568;6.998;2024-01-10T00:45:55;-5.42;71.74
64997;SHT31;51545;51.568;6.998;2024-01-10T00:48:22;-5.28;71.06
64997;SHT31;51545;51.568;6.998;2024-01-10T00:54:08;-5.29;71.06
64997;SHT31;51545;51.568;6.998;2024-01-10T00:56:35;-5.19;70.87
64997;SHT31;51545;51.568;6.998;2024-01-10T00:59:00;-5.19;70.85
64997;SHT31;51545;51.568;6.998;2024-01-10T01:01:27;-5.15;70.75
64997;SHT31;51545;51.568;6.998;2024-01-10T01:03:53;-5.12;70.67
64997;SHT31;51545;51.568;6.998;2024-01-10T01:06:19;-5.19;70.63
64997;SHT31;51545;51.568;6.998;2024-01-10T01:08:45;-5.36;71.40
64997;SHT31;51545;51.568;6.998;2024-01-10T01:11:11;-5.47;71.92
64997;SHT31;51545;51.568;6.998;2024-01-10T01:13:39;-5.51;72.25
64997;SHT31;51545;51.568;6.998;2024-01-10T01:16:06;-5.43;72.03
64997;SHT31;51545;51.568;6.998;2024-01-10T01:18:32;-5.36;71.91
64997;SHT31;51545;51.568;6.998;2024-01-10T01:20:58;-5.23;71.12
64997;SHT31;51545;51.568;6.998;2024-01-10T01:23:24;-5.26;71.11
64997;SHT31;51545;51.568;6.998;2024-01-10T01:25:50;-5.23;71.03
64997;SHT31;51545;51.568;6.998;2024-01-10T01:28:16;-5.28;71.13
64997;SHT31;51545;51.568;6.998;2024-01-10T01:30:42;-5.35;71.54
64997;SHT31;51545;51.568;6.998;2024-01-10T01:33:08;-5.43;71.71
64997;SHT31;51545;51.568;6.998;2024-01-10T01:35:34;-5.37;71.82
64997;SHT31;51545;51.568;6.998;2024-01-10T01:38:00;-5.39;71.70
64997;SHT31;51545;51.568;6.998;2024-01-10T01:40:26;-5.51;72.15
64997;SHT31;51545;51.568;6.998;2024-01-10T01:42:52;-5.40;71.81
64997;SHT31;51545;51.568;6.998;2024-01-10T01:45:19;-5.51;72.02
64997;SHT31;51545;51.568;6.998;2024-01-10T01:47:45;-5.48;72.34
64997;SHT31;51545;51.568;6.998;2024-01-10T01:50:11;-5.57;72.33
64997;SHT31;51545;51.568;6.998;2024-01-10T01:52:37;-5.71;72.97
64997;SHT31;51545;51.568;6.998;2024-01-10T01:55:04;-5.77;73.22
64997;SHT31;51545;51.568;6.998;2024-01-10T01:57:33;-5.86;74.09
64997;SHT31;51545;51.568;6.998;2024-01-10T01:59:59;-5.91;74.26
64997;SHT31;51545;51.568;6.998;2024-01-10T02:02:25;-5.93;74.11
64997;SHT31;51545;51.568;6.998;2024-01-10T02:04:52;-5.99;74.68
64997;SHT31;51545;51.568;6.998;2024-01-10T02:07:20;-6.02;75.09
64997;SHT31;51545;51.568;6.998;2024-01-10T02:09:46;-5.95;74.49
64997;SHT31;51545;51.568;6.998;2024-01-10T02:12:12;-5.96;74.39
64997;SHT31;51545;51.568;6.998;2024-01-10T02:14:38;-6.12;75.22
64997;SHT31;51545;51.568;6.998;2024-01-10T02:17:04;-6.24;75.91
64997;SHT31;51545;51.568;6.998;2024-01-10T02:19:30;-6.16;75.33
64997;SHT31;51545;51.568;6.998;2024-01-10T02:22:00;-6.27;75.56
64997;SHT31;51545;51.568;6.998;2024-01-10T02:24:26;-6.27;75.76
64997;SHT31;51545;51.568;6.998;2024-01-10T02:26:51;-6.41;76.34
64997;SHT31;51545;51.568;6.998;2024-01-10T02:29:18;-6.51;76.51
64997;SHT31;51545;51.568;6.998;2024-01-10T02:31:44;-6.50;76.94
64997;SHT31;51545;51.568;6.998;2024-01-10T02:34:10;-6.51;76.87
64997;SHT31;51545;51.568;6.998;2024-01-10T02:36:36;-6.47;76.80
64997;SHT31;51545;51.568;6.998;2024-01-10T02:39:02;-6.44;76.60
64997;SHT31;51545;51.568;6.998;2024-01-10T02:41:28;-6.40;76.87
64997;SHT31;51545;51.568;6.998;2024-01-10T02:43:54;-6.40;76.87
64997;SHT31;51545;51.568;6.998;2024-01-10T02:46:25;-6.34;76.55
64997;SHT31;51545;51.568;6.998;2024-01-10T02:48:53;-6.54;77.66
64997;SHT31;51545;51.568;6.998;2024-01-10T02:51:21;-6.72;78.10
64997;SHT31;51545;51.568;6.998;2024-01-10T02:53:47;-6.82;78.57
64997;SHT31;51545;51.568;6.998;2024-01-10T02:56:13;-6.81;78.26
64997;SHT31;51545;51.568;6.998;2024-01-10T02:58:41;-6.75;77.93
64997;SHT31;51545;51.568;6.998;2024-01-10T03:01:08;-6.44;77.40
64997;SHT31;51545;51.568;6.998;2024-01-10T03:03:35;-6.36;76.66
64997;SHT31;51545;51.568;6.998;2024-01-10T03:06:01;-6.47;76.90
64997;SHT31;51545;51.568;6.998;2024-01-10T03:08:27;-6.69;77.88
64997;SHT31;51545;51.568;6.998;2024-01-10T03:10:52;-6.88;78.77
64997;SHT31;51545;51.568;6.998;2024-01-10T03:13:19;-6.93;79.63
64997;SHT31;51545;51.568;6.998;2024-01-10T03:15:45;-6.99;79.70
64997;SHT31;51545;51.568;6.998;2024-01-10T03:18:11;-6.82;79.33
64997;SHT31;51545;51.568;6.998;2024-01-10T03:20:37;-6.68;78.67
64997;SHT31;51545;51.568;6.998;2024-01-10T03:23:03;-6.41;77.66
64997;SHT31;51545;51.568;6.998;2024-01-10T03:25:29;-6.27;77.11
64997;SHT31;51545;51.568;6.998;2024-01-10T03:27:55;-6.23;76.75
64997;SHT31;51545;51.568;6.998;2024-01-10T03:30:21;-6.31;76.79
64997;SHT31;51545;51.568;6.998;2024-01-10T03:32:49;-6.30;76.99
64997;SHT31;51545;51.568;6.998;2024-01-10T03:35:16;-6.30;76.96
64997;SHT31;51545;51.568;6.998;2024-01-10T03:37:41;-6.36;77.47
64997;SHT31;51545;51.568;6.998;2024-01-10T03:40:08;-6.16;77.07
64997;SHT31;51545;51.568;6.998;2024-01-10T03:42:46;-6.16;76.74
64997;SHT31;51545;51.568;6.998;2024-01-10T03:45:12;-6.20;76.83
64997;SHT31;51545;51.568;6.998;2024-01-10T03:47:44;-6.06;76.72
64997;SHT31;51545;51.568;6.998;2024-01-10T03:50:15;-6.16;77.13
64997;SHT31;51545;51.568;6.998;2024-01-10T03:52:44;-6.17;77.12
64997;SHT31;51545;51.568;6.998;2024-01-10T03:55:12;-6.26;77.23
64997;SHT31;51545;51.568;6.998;2024-01-10T03:57:39;-6.17;77.12
64997;SHT31;51545;51.568;6.998;2024-01-10T04:00:05;-6.12;76.99
64997;SHT31;51545;51.568;6.998;2024-01-10T04:02:32;-6.01;76.41
64997;SHT31;51545;51.568;6.998;2024-01-10T04:04:58;-6.01;76.17
64997;SHT31;51545;51.568;6.998;2024-01-10T04:07:26;-6.02;76.08
64997;SHT31;51545;51.568;6.998;2024-01-10T04:09:53;-6.05;76.16
64997;SHT31;51545;51.568;6.998;2024-01-10T04:12:19;-6.01;75.72
64997;SHT31;51545;51.568;6.998;2024-01-10T04:14:44;-5.99;75.46
64997;SHT31;51545;51.568;6.998;2024-01-10T04:17:10;-6.05;75.93
64997;SHT31;51545;51.568;6.998;2024-01-10T04:19:36;-6.17;76.18
64997;SHT31;51545;51.568;6.998;2024-01-10T04:22:02;-5.96;75.32
64997;SHT31;51545;51.568;6.998;2024-01-10T04:24:29;-5.93;75.03
64997;SHT31;51545;51.568;6.998;2024-01-10T04:26:55;-5.92;75.15
64997;SHT31;51545;51.568;6.998;2024-01-10T04:29:21;-5.86;74.77
64997;SHT31;51545;51.568;6.998;2024-01-10T04:34:41;-5.98;75.35
64997;SHT31;51545;51.568;6.998;2024-01-10T04:37:07;-5.96;74.96
64997;SHT31;51545;51.568;6.998;2024-01-10T04:39:36;-6.10;75.49
64997;SHT31;51545;51.568;6.998;2024-01-10T04:42:03;-6.12;75.92
64997;SHT31;51545;51.568;6.998;2024-01-10T04:44:30;-5.99;75.47
64997;SHT31;51545;51.568;6.998;2024-01-10T04:46:56;-6.12;75.91
64997;SHT31;51545;51.568;6.998;2024-01-10T04:49:22;-6.24;76.31
64997;SHT31;51545;51.568;6.998;2024-01-10T04:51:49;-6.29;76.39
64997;SHT31;51545;51.568;6.998;2024-01-10T04:54:15;-6.34;76.91
64997;SHT31;51545;51.568;6.998;2024-01-10T04:56:41;-6.20;76.34
64997;SHT31;51545;51.568;6.998;2024-01-10T04:59:08;-6.19;76.27
64997;SHT31;51545;51.568;6.998;2024-01-10T05:01:34;-6.17;76.37
64997;SHT31;51545;51.568;6.998;2024-01-10T05:04:00;-6.20;76.46
64997;SHT31;51545;51.568;6.998;2024-01-10T05:06:26;-6.26;76.70
64997;SHT31;51545;51.568;6.998;2024-01-10T05:08:52;-6.26;77.07
64997;SHT31;51545;51.568;6.998;2024-01-10T05:11:23;-6.20;76.74
64997;SHT31;51545;51.568;6.998;2024-01-10T05:13:53;-6.20;76.63
64997;SHT31;51545;51.568;6.998;2024-01-10T05:16:20;-6.29;76.74
64997;SHT31;51545;51.568;6.998;2024-01-10T05:18:47;-6.27;76.45
64997;SHT31;51545;51.568;6.998;2024-01-10T05:21:12;-6.23;76.71
64997;SHT31;51545;51.568;6.998;2024-01-10T05:23:38;-6.23;76.73
64997;SHT31;51545;51.568;6.998;2024-01-10T05:26:06;-6.13;76.13
64997;SHT31;51545;51.568;6.998;2024-01-10T05:28:32;-5.99;75.68
64997;SHT31;51545;51.568;6.998;2024-01-10T05:30:58;-6.06;75.84
64997;SHT31;51545;51.568;6.998;2024-01-10T05:33:24;-5.89;75.05
64997;SHT31;51545;51.568;6.998;2024-01-10T05:35:50;-5.96;75.35
64997;SHT31;51545;51.568;6.998;2024-01-10T05:38:16;-5.91;75.23
64997;SHT31;51545;51.568;6.998;2024-01-10T05:40:42;-5.86;75.01
64997;SHT31;51545;51.568;6.998;2024-01-10T05:43:08;-5.82;74.86
64997;SHT31;51545;51.568;6.998;2024-01-10T05:45:36;-5.79;74.63
64997;SHT31;51545;51.568;6.998;2024-01-10T05:48:02;-5.82;74.71
64997;SHT31;51545;51.568;6.998;2024-01-10T05:50:28;-5.81;74.80
64997;SHT31;51545;51.568;6.998;2024-01-10T05:52:55;-5.85;75.00
64997;SHT31;51545;51.568;6.998;2024-01-10T05:55:21;-5.81;74.62
64997;SHT31;51545;51.568;6.998;2024-01-10T05:57:49;-5.86;74.83
64997;SHT31;51545;51.568;6.998;2024-01-10T06:00:15;-5.84;74.64
64997;SHT31;51545;51.568;6.998;2024-01-10T06:02:42;-5.79;74.49
64997;SHT31;51545;51.568;6.998;2024-01-10T06:05:09;-5.82;74.76
64997;SHT31;51545;51.568;6.998;2024-01-10T06:07:38;-5.89;75.13
64997;SHT31;51545;51.568;6.998;2024-01-10T06:10:08;-6.01;75.41
64997;SHT31;51545;51.568;6.998;2024-01-10T06:15:04;-5.85;75.08
64997;SHT31;51545;51.568;6.998;2024-01-10T06:17:31;-5.85;74.96
64997;SHT31;51545;51.568;6.998;2024-01-10T06:19:57;-5.86;74.99
64997;SHT31;51545;51.568;6.998;2024-01-10T06:22:25;-5.84;74.99
64997;SHT31;51545;51.568;6.998;2024-01-10T06:24:52;-5.99;75.41
64997;SHT31;51545;51.568;6.998;2024-01-10T06:27:18;-5.95;75.26
64997;SHT31;51545;51.568;6.998;2024-01-10T06:29:44;-5.91;75.24
64997;SHT31;51545;51.568;6.998;2024-01-10T06:32:10;-5.84;74.97
64997;SHT31;51545;51.568;6.998;2024-01-10T06:34:36;-5.85;75.26
64997;SHT31;51545;51.568;6.998;2024-01-10T06:37:03;-5.86;75.34
64997;SHT31;51545;51.568;6.998;2024-01-10T06:39:29;-5.79;74.88
64997;SHT31;51545;51.568;6.998;2024-01-10T06:41:55;-5.88;75.39
64997;SHT31;51545;51.568;6.998;2024-01-10T06:44:21;-6.05;75.78
64997;SHT31;51545;51.568;6.998;2024-01-10T06:46:47;-5.92;75.69
64997;SHT31;51545;51.568;6.998;2024-01-10T06:49:13;-5.85;75.34
64997;SHT31;51545;51.568;6.998;2024-01-10T06:51:39;-5.89;75.57
64997;SHT31;51545;51.568;6.998;2024-01-10T06:54:05;-6.03;76.36
64997;SHT31;51545;51.568;6.998;2024-01-10T06:56:31;-6.13;76.69
64997;SHT31;51545;51.568;6.998;2024-01-10T06:58:58;-6.09;76.69
64997;SHT31;51545;51.568;6.998;2024-01-10T07:01:25;-6.16;77.08
64997;SHT31;51545;51.568;6.998;2024-01-10T07:03:52;-6.10;76.77
64997;SHT31;51545;51.568;6.998;2024-01-10T07:06:22;-6.07;76.78
64997;SHT31;51545;51.568;6.998;2024-01-10T07:08:48;-6.03;76.53
64997;SHT31;51545;51.568;6.998;2024-01-10T07:11:15;-5.93;76.01
64997;SHT31;51545;51.568;6.998;2024-01-10T07:13:42;-5.98;76.54
64997;SHT31;51545;51.568;6.998;2024-01-10T07:16:08;-5.92;76.07
64997;SHT31;51545;51.568;6.998;2024-01-10T07:18:35;-5.89;76.01
64997;SHT31;51545;51.568;6.998;2024-01-10T07:21:01;-5.91;75.82
64997;SHT31;51545;51.568;6.998;2024-01-10T07:23:27;-5.99;76.17
64997;SHT31;51545;51.568;6.998;2024-01-10T07:25:53;-5.96;76.25
64997;SHT31;51545;51.568;6.998;2024-01-10T07:28:19;-5.98;76.30
64997;SHT31;51545;51.568;6.998;2024-01-10T07:30:46;-5.93;75.97
64997;SHT31;51545;51.568;6.998;2024-01-10T07:33:12;-5.86;75.86
64997;SHT31;51545;51.568;6.998;2024-01-10T07:35:38;-5.99;76.17
64997;SHT31;51545;51.568;6.998;2024-01-10T07:38:05;-5.93;75.93
64997;SHT31;51545;51.568;6.998;2024-01-10T07:40:34;-5.95;76.04
64997;SHT31;51545;51.568;6.998;2024-01-10T07:43:00;-5.89;75.86
64997;SHT31;51545;51.568;6.998;2024-01-10T07:45:26;-6.02;76.46
64997;SHT31;51545;51.568;6.998;2024-01-10T07:47:53;-5.99;76.26
64997;SHT31;51545;51.568;6.998;2024-01-10T07:50:20;-6.07;76.64
64997;SHT31;51545;51.568;6.998;2024-01-10T07:52:46;-5.86;75.98
64997;SHT31;51545;51.568;6.998;2024-01-10T07:55:12;-5.86;75.66
64997;SHT31;51545;51.568;6.998;2024-01-10T07:57:38;-5.78;75.38
64997;SHT31;51545;51.568;6.998;2024-01-10T08:00:05;-5.78;75.36
64997;SHT31;51545;51.568;6.998;2024-01-10T08:02:40;-5.77;75.41
64997;SHT31;51545;51.568;6.998;2024-01-10T08:05:06;-5.77;75.49
64997;SHT31;51545;51.568;6.998;2024-01-10T08:07:35;-5.75;75.32
64997;SHT31;51545;51.568;6.998;2024-01-10T08:10:07;-5.75;75.29
64997;SHT31;51545;51.568;6.998;2024-01-10T08:12:35;-5.67;74.91
64997;SHT31;51545;51.568;6.998;2024-01-10T08:15:02;-5.65;74.93
64997;SHT31;51545;51.568;6.998;2024-01-10T08:17:28;-5.67;74.82
64997;SHT31;51545;51.568;6.998;2024-01-10T08:19:54;-5.60;74.60
64997;SHT31;51545;51.568;6.998;2024-01-10T08:22:20;-5.48;74.01
64997;SHT31;51545;51.568;6.998;2024-01-10T08:24:46;-5.53;74.21
64997;SHT31;51545;51.568;6.998;2024-01-10T08:27:12;-5.56;74.51
64997;SHT31;51545;51.568;6.998;2024-01-10T08:29:38;-5.58;74.54
64997;SHT31;51545;51.568;6.998;2024-01-10T08:32:04;-5.44;74.12
64997;SHT31;51545;51.568;6.998;2024-01-10T08:34:30;-5.42;74.51
64997;SHT31;51545;51.568;6.998;2024-01-10T08:36:57;-5.42;73.90
64997;SHT31;51545;51.568;6.998;2024-01-10T08:39:23;-5.37;73.69
64997;SHT31;51545;51.568;6.998;2024-01-10T08:41:53;-5.28;73.37
64997;SHT31;51545;51.568;6.998;2024-01-10T08:44:19;-5.19;73.31
64997;SHT31;51545;51.568;6.998;2024-01-10T08:46:45;-5.09;72.90
64997;SHT31;51545;51.568;6.998;2024-01-10T08:49:13;-4.95;72.43
64997;SHT31;51545;51.568;6.998;2024-01-10T08:51:39;-4.95;72.55
64997;SHT31;51545;51.568;6.998;2024-01-10T08:54:07;-4.89;72.43
64997;SHT31;51545;51.568;6.998;2024-01-10T08:56:34;-4.75;71.72
64997;SHT31;51545;51.568;6.998;2024-01-10T08:59:00;-4.70;71.23
64997;SHT31;51545;51.568;6.998;2024-01-10T09:01:26;-4.64;71.30
64997;SHT31;51545;51.568;6.998;2024-01-10T09:03:52;-4.61;70.89
64997;SHT31;51545;51.568;6.998;2024-01-10T09:06:18;-4.57;70.94
64997;SHT31;51545;51.568;6.998;2024-01-10T09:08:46;-4.56;70.55
64997;SHT31;51545;51.568;6.998;2024-01-10T09:11:12;-4.56;70.54
64997;SHT31;51545;51.568;6.998;2024-01-10T09:13:38;-4.54;70.73
64997;SHT31;51545;51.568;6.998;2024-01-10T09:16:05;-4.50;71.25
64997;SHT31;51545;51.568;6.998;2024-01-10T09:18:32;-4.52;71.16
64997;SHT31;51545;51.568;6.998;2024-01-10T09:20:57;-4.47;70.86
64997;SHT31;51545;51.568;6.998;2024-01-10T09:23:23;-4.52;71.05
64997;SHT31;51545;51.568;6.998;2024-01-10T09:25:49;-4.47;71.35
64997;SHT31;51545;51.568;6.998;2024-01-10T09:28:15;-4.42;71.05
64997;SHT31;51545;51.568;6.998;2024-01-10T09:30:42;-4.40;70.68
64997;SHT31;51545;51.568;6.998;2024-01-10T09:33:08;-4.33;70.69
64997;SHT31;51545;51.568;6.998;2024-01-10T09:35:34;-4.26;70.92
64997;SHT31;51545;51.568;6.998;2024-01-10T09:38:00;-4.24;70.90
64997;SHT31;51545;51.568;6.998;2024-01-10T09:40:26;-4.16;70.86
64997;SHT31;51545;51.568;6.998;2024-01-10T09:42:54;-4.15;70.84
64997;SHT31;51545;51.568;6.998;2024-01-10T09:45:21;-4.14;70.17
64997;SHT31;51545;51.568;6.998;2024-01-10T09:47:49;-4.09;69.75
64997;SHT31;51545;51.568;6.998;2024-01-10T09:50:20;-4.05;70.11
64997;SHT31;51545;51.568;6.998;2024-01-10T09:55:17;-3.88;69.76
64997;SHT31;51545;51.568;6.998;2024-01-10T09:57:46;-3.87;69.07
64997;SHT31;51545;51.568;6.998;2024-01-10T10:00:14;-3.74;69.23
64997;SHT31;51545;51.568;6.998;2024-01-10T10:02:41;-3.71;68.93
64997;SHT31;51545;51.568;6.998;2024-01-10T10:07:44;-3.64;68.14
64997;SHT31;51545;51.568;6.998;2024-01-10T10:10:14;-3.56;68.30
64997;SHT31;51545;51.568;6.998;2024-01-10T10:12:42;-3.45;68.43
64997;SHT31;51545;51.568;6.998;2024-01-10T10:15:13;-3.40;67.93
64997;SHT31;51545;51.568;6.998;2024-01-10T10:17:40;-3.39;68.63
64997;SHT31;51545;51.568;6.998;2024-01-10T10:20:22;-3.35;67.96
64997;SHT31;51545;51.568;6.998;2024-01-10T10:25:28;-3.19;66.72
64997;SHT31;51545;51.568;6.998;2024-01-10T10:27:59;-3.09;67.42
64997;SHT31;51545;51.568;6.998;2024-01-10T10:30:28;-2.98;67.12
64997;SHT31;51545;51.568;6.998;2024-01-10T10:32:57;-2.93;66.34
64997;SHT31;51545;51.568;6.998;2024-01-10T10:35:23;-2.83;66.57
64997;SHT31;51545;51.568;6.998;2024-01-10T10:37:49;-2.77;65.98
64997;SHT31;51545;51.568;6.998;2024-01-10T10:40:17;-2.68;65.53
64997;SHT31;51545;51.568;6.998;2024-01-10T10:43:18;-2.68;65.22
64997;SHT31;51545;51.568;6.998;2024-01-10T10:45:43;-2.51;64.93
64997;SHT31;51545;51.568;6.998;2024-01-10T10:48:15;-2.51;65.00
64997;SHT31;51545;51.568;6.998;2024-01-10T10:50:43;-2.49;64.25
64997;SHT31;51545;51.568;6.998;2024-01-10T10:53:29;-2.48;64.14
64997;SHT31;51545;51.568;6.998;2024-01-10T10:55:57;-2.42;64.12
64997;SHT31;51545;51.568;6.998;2024-01-10T10:58:24;-2.35;64.36
64997;SHT31;51545;51.568;6.998;2024-01-10T11:00:50;-2.32;64.17
64997;SHT31;51545;51.568;6.998;2024-01-10T11:03:17;-2.31;64.00
64997;SHT31;51545;51.568;6.998;2024-01-10T11:05:45;-2.24;63.76
64997;SHT31;51545;51.568;6.998;2024-01-10T11:08:12;-2.21;63.69
64997;SHT31;51545;51.568;6.998;2024-01-10T11:10:43;-2.08;63.21
64997;SHT31;51545;51.568;6.998;2024-01-10T11:24:23;-1.76;62.26
64997;SHT31;51545;51.568;6.998;2024-01-10T11:26:50;-1.76;62.62
64997;SHT31;51545;51.568;6.998;2024-01-10T11:29:31;-1.79;62.73
64997;SHT31;51545;51.568;6.998;2024-01-10T11:31:58;-1.73;62.51
64997;SHT31;51545;51.568;6.998;2024-01-10T11:34:24;-1.72;63.05
64997;SHT31;51545;51.568;6.998;2024-01-10T11:37:10;-1.63;61.89
64997;SHT31;51545;51.568;6.998;2024-01-10T11:39:40;-1.52;61.92
64997;SHT31;51545;51.568;6.998;2024-01-10T11:42:08;-1.45;61.58
64997;SHT31;51545;51.568;6.998;2024-01-10T11:44:36;-1.47;62.10
64997;SHT31;51545;51.568;6.998;2024-01-10T11:47:15;-1.27;61.18
64997;SHT31;51545;51.568;6.998;2024-01-10T11:49:41;-1.14;60.92
64997;SHT31;51545;51.568;6.998;2024-01-10T11:52:21;-1.10;60.25
64997;SHT31;51545;51.568;6.998;2024-01-10T11:54:48;-1.07;59.69
64997;SHT31;51545;51.568;6.998;2024-01-10T11:59:48;-1.04;59.20
64997;SHT31;51545;51.568;6.998;2024-01-10T12:02:16;-0.97;59.24
64997;SHT31;51545;51.568;6.998;2024-01-10T12:04:43;-0.93;59.08
64997;SHT31;51545;51.568;6.998;2024-01-10T12:07:11;-0.86;59.17
64997;SHT31;51545;51.568;6.998;2024-01-10T12:09:37;-0.76;58.90
64997;SHT31;51545;51.568;6.998;2024-01-10T12:12:04;-0.85;59.56
64997;SHT31;51545;51.568;6.998;2024-01-10T12:14:31;-0.79;59.51
64997;SHT31;51545;51.568;6.998;2024-01-10T12:16:59;-0.75;59.41
64997;SHT31;51545;51.568;6.998;2024-01-10T12:19:26;-0.66;58.81
64997;SHT31;51545;51.568;6.998;2024-01-10T12:21:52;-0.64;58.73
64997;SHT31;51545;51.568;6.998;2024-01-10T12:24:19;-0.61;58.84
64997;SHT31;51545;51.568;6.998;2024-01-10T12:26:46;-0.66;58.81
64997;SHT31;51545;51.568;6.998;2024-01-10T12:30:38;-0.55;59.22
64997;SHT31;51545;51.568;6.998;2024-01-10T12:33:04;-0.47;58.77
64997;SHT31;51545;51.568;6.998;2024-01-10T12:35:31;-0.58;58.91
64997;SHT31;51545;51.568;6.998;2024-01-10T12:37:57;-0.65;59.17
64997;SHT31;51545;51.568;6.998;2024-01-10T12:40:23;-0.61;60.08
64997;SHT31;51545;51.568;6.998;2024-01-10T12:42:49;-0.58;59.54
64997;SHT31;51545;51.568;6.998;2024-01-10T12:45:27;-0.41;58.77
64997;SHT31;51545;51.568;6.998;2024-01-10T12:47:54;-0.40;58.95
64997;SHT31;51545;51.568;6.998;2024-01-10T12:50:20;-0.45;59.09
64997;SHT31;51545;51.568;6.998;2024-01-10T12:52:46;-0.45;59.71
64997;SHT31;51545;51.568;6.998;2024-01-10T12:55:14;-0.37;59.47
64997;SHT31;51545;51.568;6.998;2024-01-10T12:57:40;-0.47;59.61
64997;SHT31;51545;51.568;6.998;2024-01-10T13:00:07;-0.44;59.65
64997;SHT31;51545;51.568;6.998;2024-01-10T13:02:35;-0.26;58.79
64997;SHT31;51545;51.568;6.998;2024-01-10T13:05:05;-0.23;58.70
64997;SHT31;51545;51.568;6.998;2024-01-10T13:07:37;-0.23;59.03
64997;SHT31;51545;51.568;6.998;2024-01-10T13:10:04;-0.13;58.82
64997;SHT31;51545;51.568;6.998;2024-01-10T13:12:30;-0.16;58.51
64997;SHT31;51545;51.568;6.998;2024-01-10T13:14:56;-0.11;58.84
64997;SHT31;51545;51.568;6.998;2024-01-10T13:17:22;-0.11;58.54
64997;SHT31;51545;51.568;6.998;2024-01-10T13:19:48;-0.07;58.38
64997;SHT31;51545;51.568;6.998;2024-01-10T13:22:17;0.01;58.34
64997;SHT31;51545;51.568;6.998;2024-01-10T13:24:46;0.07;57.98
64997;SHT31;51545;51.568;6.998;2024-01-10T13:27:12;-0.06;58.05
64997;SHT31;51545;51.568;6.998;2024-01-10T13:29:38;-0.10;58.59
64997;SHT31;51545;51.568;6.998;2024-01-10T13:32:05;-0.13;58.43
64997;SHT31;51545;51.568;6.998;2024-01-10T13:34:31;-0.02;58.59
64997;SHT31;51545;51.568;6.998;2024-01-10T13:36:59;0.00;58.39
64997;SHT31;51545;51.568;6.998;2024-01-10T13:39:27;-0.02;58.18
64997;SHT31;51545;51.568;6.998;2024-01-10T13:41:53;-0.10;58.32
64997;SHT31;51545;51.568;6.998;2024-01-10T13:44:20;-0.23;59.41
64997;SHT31;51545;51.568;6.998;2024-01-10T13:46:46;-0.23;59.44
64997;SHT31;51545;51.568;6.998;2024-01-10T13:49:15;-0.20;59.13
64997;SHT31;51545;51.568;6.998;2024-01-10T13:51:41;-0.20;59.13
64997;SHT31;51545;51.568;6.998;2024-01-10T13:54:10;-0.31;59.66
64997;SHT31;51545;51.568;6.998;2024-01-10T13:56:36;-0.41;59.89
64997;SHT31;51545;51.568;6.998;2024-01-10T13:59:05;-0.52;60.43
64997;SHT31;51545;51.568;6.998;2024-01-10T14:01:31;-0.48;60.25
64997;SHT31;51545;51.568;6.998;2024-01-10T14:03:57;-0.52;60.28
64997;SHT31;51545;51.568;6.998;2024-01-10T14:06:25;-0.61;60.74
64997;SHT31;51545;51.568;6.998;2024-01-10T14:08:51;-0.72;61.27
64997;SHT31;51545;51.568;6.998;2024-01-10T14:11:19;-0.73;61.24
64997;SHT31;51545;51.568;6.998;2024-01-10T14:13:45;-0.75;61.63
64997;SHT31;51545;51.568;6.998;2024-01-10T14:16:11;-0.77;61.79
64997;SHT31;51545;51.568;6.998;2024-01-10T14:18:37;-0.82;61.72
64997;SHT31;51545;51.568;6.998;2024-01-10T14:21:03;-0.79;61.75
64997;SHT31;51545;51.568;6.998;2024-01-10T14:23:30;-0.76;61.65
64997;SHT31;51545;51.568;6.998;2024-01-10T14:25:56;-0.77;61.51
64997;SHT31;51545;51.568;6.998;2024-01-10T14:28:22;-0.80;61.53
64997;SHT31;51545;51.568;6.998;2024-01-10T14:30:49;-0.86;61.79
64997;SHT31;51545;51.568;6.998;2024-01-10T14:33:26;-0.93;62.00
64997;SHT31;51545;51.568;6.998;2024-01-10T14:35:54;-0.94;62.32
64997;SHT31;51545;51.568;6.998;2024-01-10T14:38:20;-0.93;62.31
64997;SHT31;51545;51.568;6.998;2024-01-10T14:40:48;-0.94;62.41
64997;SHT31;51545;51.568;6.998;2024-01-10T14:43:14;-1.00;62.28
64997;SHT31;51545;51.568;6.998;2024-01-10T14:45:40;-1.06;62.55
64997;SHT31;51545;51.568;6.998;2024-01-10T14:48:06;-1.00;62.79
64997;SHT31;51545;51.568;6.998;2024-01-10T14:50:33;-1.01;62.69
64997;SHT31;51545;51.568;6.998;2024-01-10T14:52:59;-0.99;62.35
64997;SHT31;51545;51.568;6.998;2024-01-10T14:55:29;-1.03;62.54
64997;SHT31;51545;51.568;6.998;2024-01-10T14:57:56;-1.16;63.56
64997;SHT31;51545;51.568;6.998;2024-01-10T15:00:22;-1.21;63.52
64997;SHT31;51545;51.568;6.998;2024-01-10T15:02:48;-1.24;63.72
64997;SHT31;51545;51.568;6.998;2024-01-10T15:05:15;-1.23;63.68
64997;SHT31;51545;51.568;6.998;2024-01-10T15:07:46;-1.19;63.33
64997;SHT31;51545;51.568;6.998;2024-01-10T15:10:13;-1.25;63.76
64997;SHT31;51545;51.568;6.998;2024-01-10T15:12:39;-1.44;64.36
64997;SHT31;51545;51.568;6.998;2024-01-10T15:15:06;-1.44;64.51
64997;SHT31;51545;51.568;6.998;2024-01-10T15:17:33;-1.54;65.06
64997;SHT31;51545;51.568;6.998;2024-01-10T15:19:59;-1.51;64.79
64997;SHT31;51545;51.568;6.998;2024-01-10T15:22:26;-1.30;64.47
64997;SHT31;51545;51.568;6.998;2024-01-10T15:24:53;-1.37;64.47
64997;SHT31;51545;51.568;6.998;2024-01-10T15:27:19;-1.41;64.65
64997;SHT31;51545;51.568;6.998;2024-01-10T15:29:45;-1.51;64.95
64997;SHT31;51545;51.568;6.998;2024-01-10T15:32:12;-1.63;65.65
64997;SHT31;51545;51.568;6.998;2024-01-10T15:34:41;-1.69;65.81
64997;SHT31;51545;51.568;6.998;2024-01-10T15:37:06;-1.66;65.42
64997;SHT31;51545;51.568;6.998;2024-01-10T15:39:33;-1.80;66.14
64997;SHT31;51545;51.568;6.998;2024-01-10T15:41:59;-1.83;66.10
64997;SHT31;51545;51.568;6.998;2024-01-10T15:44:25;-1.93;66.86
64997;SHT31;51545;51.568;6.998;2024-01-10T15:46:59;-1.68;65.74
64997;SHT31;51545;51.568;6.998;2024-01-10T15:49:27;-1.69;65.85
64997;SHT31;51545;51.568;6.998;2024-01-10T15:51:55;-1.68;65.62
64997;SHT31;51545;51.568;6.998;2024-01-10T15:54:23;-1.58;65.29
64997;SHT31;51545;51.568;6.998;2024-01-10T15:56:57;-1.59;65.12
64997;SHT31;51545;51.568;6.998;2024-01-10T15:59:25;-1.65;65.39
64997;SHT31;51545;51.568;6.998;2024-01-10T16:01:52;-1.62;65.29